Terminal Aerodrome Forecast
Issued by NWS Pocatello, ID

Home | Current Version | Previous Version | Text Only | Print | Product List | Glossary On
Versions: 1 2 3 4 5 6 7 8 9 10 11 12 13 14 15 16 17 18 19
121
FTUS45 KPIH 281120
TAFBYI
TAF
KBYI 281120Z 2812/2912 27011KT P6SM SCT050 SCT200
     FM290200 24005KT P6SM SCT150=

USA.gov is the U.S. government's official web portal to all federal, state and local government web resources and services.